sensor_id;sensor_type;location;lat;lon;timestamp;P1;durP1;ratioP1;P2;durP2;ratioP2
75798;SDS011;70933;44.692;37.776;2024-01-30T00:00:02;1.60;;;0.30;;
75798;SDS011;70933;44.692;37.776;2024-01-30T00:01:05;1.98;;;0.52;;
75798;SDS011;70933;44.692;37.776;2024-01-30T00:02:07;1.55;;;0.40;;
75798;SDS011;70933;44.692;37.776;2024-01-30T00:03:09;1.30;;;0.60;;
75798;SDS011;70933;44.692;37.776;2024-01-30T00:04:10;1.77;;;0.40;;
75798;SDS011;70933;44.692;37.776;2024-01-30T00:05:12;1.33;;;0.30;;
75798;SDS011;70933;44.692;37.776;2024-01-30T00:06:14;1.75;;;0.50;;
75798;SDS011;70933;44.692;37.776;2024-01-30T00:07:15;1.75;;;0.52;;
75798;SDS011;70933;44.692;37.776;2024-01-30T00:08:17;1.13;;;0.40;;
75798;SDS011;70933;44.692;37.776;2024-01-30T00:09:19;2.30;;;0.40;;
75798;SDS011;70933;44.692;37.776;2024-01-30T00:10:21;1.30;;;0.50;;
75798;SDS011;70933;44.692;37.776;2024-01-30T00:11:23;1.52;;;0.40;;
75798;SDS011;70933;44.692;37.776;2024-01-30T00:12:26;2.30;;;0.60;;
75798;SDS011;70933;44.692;37.776;2024-01-30T00:13:28;1.08;;;0.20;;
75798;SDS011;70933;44.692;37.776;2024-01-30T00:14:30;1.40;;;0.73;;
75798;SDS011;70933;44.692;37.776;2024-01-30T00:15:31;3.90;;;0.60;;
75798;SDS011;70933;44.692;37.776;2024-01-30T00:16:33;1.70;;;0.38;;
75798;SDS011;70933;44.692;37.776;2024-01-30T00:17:36;1.60;;;1.05;;
75798;SDS011;70933;44.692;37.776;2024-01-30T00:18:38;1.17;;;0.47;;
75798;SDS011;70933;44.692;37.776;2024-01-30T00:19:40;1.15;;;0.50;;
75798;SDS011;70933;44.692;37.776;2024-01-30T00:20:42;2.10;;;1.02;;
75798;SDS011;70933;44.692;37.776;2024-01-30T00:21:43;1.60;;;0.63;;
75798;SDS011;70933;44.692;37.776;2024-01-30T00:22:45;1.77;;;0.80;;
75798;SDS011;70933;44.692;37.776;2024-01-30T00:23:47;1.45;;;0.50;;
75798;SDS011;70933;44.692;37.776;2024-01-30T00:24:48;1.58;;;0.52;;
75798;SDS011;70933;44.692;37.776;2024-01-30T00:25:50;1.67;;;0.57;;
75798;SDS011;70933;44.692;37.776;2024-01-30T00:26:52;1.67;;;0.30;;
75798;SDS011;70933;44.692;37.776;2024-01-30T00:27:53;1.20;;;0.38;;
75798;SDS011;70933;44.692;37.776;2024-01-30T00:28:55;2.67;;;0.55;;
75798;SDS011;70933;44.692;37.776;2024-01-30T00:29:57;1.73;;;0.40;;
75798;SDS011;70933;44.692;37.776;2024-01-30T00:30:58;1.38;;;0.30;;
75798;SDS011;70933;44.692;37.776;2024-01-30T00:32:00;1.55;;;0.50;;
75798;SDS011;70933;44.692;37.776;2024-01-30T00:33:02;1.73;;;0.30;;
75798;SDS011;70933;44.692;37.776;2024-01-30T00:34:03;1.83;;;0.47;;
75798;SDS011;70933;44.692;37.776;2024-01-30T00:35:05;1.52;;;0.50;;
75798;SDS011;70933;44.692;37.776;2024-01-30T00:36:07;2.13;;;0.50;;
75798;SDS011;70933;44.692;37.776;2024-01-30T00:37:10;1.40;;;0.40;;
75798;SDS011;70933;44.692;37.776;2024-01-30T00:38:12;1.38;;;0.55;;
75798;SDS011;70933;44.692;37.776;2024-01-30T00:39:14;1.20;;;0.52;;
75798;SDS011;70933;44.692;37.776;2024-01-30T00:40:16;1.60;;;1.10;;
75798;SDS011;70933;44.692;37.776;2024-01-30T00:41:19;1.75;;;0.65;;
75798;SDS011;70933;44.692;37.776;2024-01-30T00:42:21;1.45;;;0.40;;
75798;SDS011;70933;44.692;37.776;2024-01-30T00:43:24;1.13;;;0.40;;
75798;SDS011;70933;44.692;37.776;2024-01-30T00:44:26;1.83;;;0.60;;
75798;SDS011;70933;44.692;37.776;2024-01-30T00:45:28;1.20;;;0.32;;
75798;SDS011;70933;44.692;37.776;2024-01-30T00:46:30;1.30;;;0.68;;
75798;SDS011;70933;44.692;37.776;2024-01-30T00:47:32;1.40;;;0.50;;
75798;SDS011;70933;44.692;37.776;2024-01-30T00:48:33;2.45;;;0.45;;
75798;SDS011;70933;44.692;37.776;2024-01-30T00:49:36;1.50;;;0.50;;
75798;SDS011;70933;44.692;37.776;2024-01-30T00:50:37;1.85;;;0.65;;
75798;SDS011;70933;44.692;37.776;2024-01-30T00:51:39;1.45;;;0.30;;
75798;SDS011;70933;44.692;37.776;2024-01-30T00:52:40;1.30;;;0.40;;
75798;SDS011;70933;44.692;37.776;2024-01-30T00:53:43;1.65;;;0.77;;
75798;SDS011;70933;44.692;37.776;2024-01-30T00:54:44;1.77;;;0.57;;
75798;SDS011;70933;44.692;37.776;2024-01-30T00:55:46;1.38;;;0.50;;
75798;SDS011;70933;44.692;37.776;2024-01-30T00:56:48;2.15;;;1.67;;
75798;SDS011;70933;44.692;37.776;2024-01-30T00:57:49;2.15;;;0.38;;
75798;SDS011;70933;44.692;37.776;2024-01-30T00:58:51;1.30;;;0.43;;
75798;SDS011;70933;44.692;37.776;2024-01-30T00:59:53;1.77;;;0.38;;
75798;SDS011;70933;44.692;37.776;2024-01-30T01:00:54;2.05;;;0.75;;
75798;SDS011;70933;44.692;37.776;2024-01-30T01:01:56;1.30;;;0.30;;
75798;SDS011;70933;44.692;37.776;2024-01-30T01:02:58;1.50;;;0.43;;
75798;SDS011;70933;44.692;37.776;2024-01-30T01:04:00;1.02;;;0.38;;
75798;SDS011;70933;44.692;37.776;2024-01-30T01:05:02;2.25;;;0.45;;
75798;SDS011;70933;44.692;37.776;2024-01-30T01:06:04;1.73;;;0.47;;
75798;SDS011;70933;44.692;37.776;2024-01-30T01:07:06;1.83;;;0.20;;
75798;SDS011;70933;44.692;37.776;2024-01-30T01:08:07;1.00;;;0.25;;
75798;SDS011;70933;44.692;37.776;2024-01-30T01:09:10;1.33;;;0.50;;
75798;SDS011;70933;44.692;37.776;2024-01-30T01:10:13;1.02;;;0.38;;
75798;SDS011;70933;44.692;37.776;2024-01-30T01:11:16;1.42;;;0.22;;
75798;SDS011;70933;44.692;37.776;2024-01-30T01:12:18;1.63;;;0.30;;
75798;SDS011;70933;44.692;37.776;2024-01-30T01:13:20;1.40;;;0.45;;
75798;SDS011;70933;44.692;37.776;2024-01-30T01:14:22;1.25;;;0.22;;
75798;SDS011;70933;44.692;37.776;2024-01-30T01:15:23;1.20;;;0.28;;
75798;SDS011;70933;44.692;37.776;2024-01-30T01:16:25;1.42;;;0.38;;
75798;SDS011;70933;44.692;37.776;2024-01-30T01:17:27;1.05;;;0.20;;
75798;SDS011;70933;44.692;37.776;2024-01-30T01:18:28;1.25;;;0.60;;
75798;SDS011;70933;44.692;37.776;2024-01-30T01:19:30;1.10;;;0.43;;
75798;SDS011;70933;44.692;37.776;2024-01-30T01:20:32;1.45;;;0.40;;
75798;SDS011;70933;44.692;37.776;2024-01-30T01:21:33;1.13;;;0.30;;
75798;SDS011;70933;44.692;37.776;2024-01-30T01:22:35;1.70;;;0.40;;
75798;SDS011;70933;44.692;37.776;2024-01-30T01:23:39;1.02;;;0.30;;
75798;SDS011;70933;44.692;37.776;2024-01-30T01:24:41;1.30;;;0.65;;
75798;SDS011;70933;44.692;37.776;2024-01-30T01:25:43;1.60;;;0.25;;
75798;SDS011;70933;44.692;37.776;2024-01-30T01:26:44;1.15;;;0.68;;
75798;SDS011;70933;44.692;37.776;2024-01-30T01:27:46;1.50;;;0.40;;
75798;SDS011;70933;44.692;37.776;2024-01-30T01:28:52;1.20;;;0.35;;
75798;SDS011;70933;44.692;37.776;2024-01-30T01:29:54;1.13;;;0.32;;
75798;SDS011;70933;44.692;37.776;2024-01-30T01:30:56;2.17;;;0.40;;
75798;SDS011;70933;44.692;37.776;2024-01-30T01:32:00;1.70;;;0.73;;
75798;SDS011;70933;44.692;37.776;2024-01-30T01:33:01;1.20;;;0.20;;
75798;SDS011;70933;44.692;37.776;2024-01-30T01:34:03;1.20;;;0.50;;
75798;SDS011;70933;44.692;37.776;2024-01-30T01:35:05;1.10;;;0.20;;
75798;SDS011;70933;44.692;37.776;2024-01-30T01:36:06;2.20;;;0.47;;
75798;SDS011;70933;44.692;37.776;2024-01-30T01:37:08;0.95;;;0.60;;
75798;SDS011;70933;44.692;37.776;2024-01-30T01:38:10;1.17;;;0.38;;
75798;SDS011;70933;44.692;37.776;2024-01-30T01:39:12;2.28;;;0.60;;
75798;SDS011;70933;44.692;37.776;2024-01-30T01:40:13;1.00;;;0.20;;
75798;SDS011;70933;44.692;37.776;2024-01-30T01:41:15;1.50;;;0.30;;
75798;SDS011;70933;44.692;37.776;2024-01-30T01:42:17;0.82;;;0.35;;
75798;SDS011;70933;44.692;37.776;2024-01-30T01:43:18;0.90;;;0.25;;
75798;SDS011;70933;44.692;37.776;2024-01-30T01:44:20;1.65;;;0.95;;
75798;SDS011;70933;44.692;37.776;2024-01-30T01:45:22;0.98;;;0.30;;
75798;SDS011;70933;44.692;37.776;2024-01-30T01:46:26;1.05;;;0.35;;
75798;SDS011;70933;44.692;37.776;2024-01-30T01:47:28;1.30;;;0.65;;
75798;SDS011;70933;44.692;37.776;2024-01-30T01:48:30;1.52;;;0.50;;
75798;SDS011;70933;44.692;37.776;2024-01-30T01:49:32;1.23;;;0.43;;
75798;SDS011;70933;44.692;37.776;2024-01-30T01:50:34;0.90;;;0.32;;
75798;SDS011;70933;44.692;37.776;2024-01-30T01:51:36;1.00;;;0.30;;
75798;SDS011;70933;44.692;37.776;2024-01-30T01:52:39;0.90;;;0.30;;
75798;SDS011;70933;44.692;37.776;2024-01-30T01:53:42;1.13;;;0.55;;
75798;SDS011;70933;44.692;37.776;2024-01-30T01:54:44;1.48;;;0.40;;
75798;SDS011;70933;44.692;37.776;2024-01-30T01:55:46;0.90;;;0.20;;
75798;SDS011;70933;44.692;37.776;2024-01-30T01:56:48;1.63;;;0.40;;
75798;SDS011;70933;44.692;37.776;2024-01-30T01:57:51;1.20;;;0.40;;
75798;SDS011;70933;44.692;37.776;2024-01-30T01:58:54;1.10;;;0.45;;
75798;SDS011;70933;44.692;37.776;2024-01-30T01:59:56;1.23;;;0.40;;
75798;SDS011;70933;44.692;37.776;2024-01-30T02:00:58;1.42;;;0.20;;
75798;SDS011;70933;44.692;37.776;2024-01-30T02:02:00;1.33;;;0.38;;
75798;SDS011;70933;44.692;37.776;2024-01-30T02:03:04;1.20;;;0.80;;
75798;SDS011;70933;44.692;37.776;2024-01-30T02:04:07;1.73;;;0.45;;
75798;SDS011;70933;44.692;37.776;2024-01-30T02:05:09;1.55;;;0.20;;
75798;SDS011;70933;44.692;37.776;2024-01-30T02:06:11;1.10;;;0.40;;
75798;SDS011;70933;44.692;37.776;2024-01-30T02:07:14;1.48;;;0.77;;
75798;SDS011;70933;44.692;37.776;2024-01-30T02:08:16;1.35;;;0.40;;
75798;SDS011;70933;44.692;37.776;2024-01-30T02:09:18;1.58;;;0.22;;
75798;SDS011;70933;44.692;37.776;2024-01-30T02:10:19;1.02;;;0.38;;
75798;SDS011;70933;44.692;37.776;2024-01-30T02:11:21;1.52;;;0.43;;
75798;SDS011;70933;44.692;37.776;2024-01-30T02:12:25;0.90;;;0.32;;
75798;SDS011;70933;44.692;37.776;2024-01-30T02:13:27;1.60;;;0.30;;
75798;SDS011;70933;44.692;37.776;2024-01-30T02:14:29;1.27;;;0.95;;
75798;SDS011;70933;44.692;37.776;2024-01-30T02:15:30;1.23;;;0.40;;
75798;SDS011;70933;44.692;37.776;2024-01-30T02:16:32;1.20;;;0.73;;
75798;SDS011;70933;44.692;37.776;2024-01-30T02:17:34;1.20;;;0.30;;
75798;SDS011;70933;44.692;37.776;2024-01-30T02:18:35;1.25;;;0.75;;
75798;SDS011;70933;44.692;37.776;2024-01-30T02:20:54;1.17;;;0.43;;
75798;SDS011;70933;44.692;37.776;2024-01-30T02:21:57;1.05;;;0.30;;
75798;SDS011;70933;44.692;37.776;2024-01-30T02:22:59;0.90;;;0.22;;
75798;SDS011;70933;44.692;37.776;2024-01-30T02:24:03;1.40;;;0.38;;
75798;SDS011;70933;44.692;37.776;2024-01-30T02:25:06;1.33;;;0.10;;
75798;SDS011;70933;44.692;37.776;2024-01-30T02:26:07;1.30;;;0.60;;
75798;SDS011;70933;44.692;37.776;2024-01-30T02:27:09;1.38;;;0.30;;
75798;SDS011;70933;44.692;37.776;2024-01-30T02:28:14;1.08;;;0.22;;
75798;SDS011;70933;44.692;37.776;2024-01-30T02:29:16;1.10;;;0.22;;
75798;SDS011;70933;44.692;37.776;2024-01-30T02:30:18;1.45;;;0.30;;
75798;SDS011;70933;44.692;37.776;2024-01-30T02:31:19;0.98;;;0.38;;
75798;SDS011;70933;44.692;37.776;2024-01-30T02:32:21;0.95;;;0.20;;
75798;SDS011;70933;44.692;37.776;2024-01-30T02:33:23;1.23;;;0.43;;
75798;SDS011;70933;44.692;37.776;2024-01-30T02:34:25;0.98;;;0.30;;
75798;SDS011;70933;44.692;37.776;2024-01-30T02:35:26;1.73;;;0.50;;
75798;SDS011;70933;44.692;37.776;2024-01-30T02:36:28;2.03;;;0.65;;
75798;SDS011;70933;44.692;37.776;2024-01-30T02:37:29;1.42;;;0.52;;
75798;SDS011;70933;44.692;37.776;2024-01-30T02:38:31;0.80;;;0.20;;
75798;SDS011;70933;44.692;37.776;2024-01-30T02:39:32;1.33;;;0.38;;
75798;SDS011;70933;44.692;37.776;2024-01-30T02:40:34;0.88;;;0.40;;
75798;SDS011;70933;44.692;37.776;2024-01-30T02:41:36;1.77;;;0.20;;
75798;SDS011;70933;44.692;37.776;2024-01-30T02:42:37;1.23;;;0.20;;
75798;SDS011;70933;44.692;37.776;2024-01-30T02:43:40;1.20;;;0.50;;
75798;SDS011;70933;44.692;37.776;2024-01-30T02:44:41;1.38;;;0.47;;
75798;SDS011;70933;44.692;37.776;2024-01-30T02:45:43;1.10;;;0.40;;
75798;SDS011;70933;44.692;37.776;2024-01-30T02:46:45;1.35;;;0.32;;
75798;SDS011;70933;44.692;37.776;2024-01-30T02:47:46;0.93;;;0.20;;
75798;SDS011;70933;44.692;37.776;2024-01-30T02:48:48;1.23;;;0.63;;
75798;SDS011;70933;44.692;37.776;2024-01-30T02:49:49;1.58;;;0.98;;
75798;SDS011;70933;44.692;37.776;2024-01-30T02:50:51;1.17;;;0.28;;
75798;SDS011;70933;44.692;37.776;2024-01-30T02:51:53;1.40;;;0.30;;
75798;SDS011;70933;44.692;37.776;2024-01-30T02:52:56;1.40;;;0.30;;
75798;SDS011;70933;44.692;37.776;2024-01-30T02:53:57;1.10;;;0.25;;
75798;SDS011;70933;44.692;37.776;2024-01-30T02:54:59;1.23;;;0.47;;
75798;SDS011;70933;44.692;37.776;2024-01-30T02:56:02;1.23;;;0.55;;
75798;SDS011;70933;44.692;37.776;2024-01-30T02:57:04;1.75;;;0.22;;
75798;SDS011;70933;44.692;37.776;2024-01-30T02:58:06;1.08;;;0.30;;
75798;SDS011;70933;44.692;37.776;2024-01-30T02:59:07;1.10;;;0.30;;
75798;SDS011;70933;44.692;37.776;2024-01-30T03:00:09;1.23;;;0.30;;
75798;SDS011;70933;44.692;37.776;2024-01-30T03:01:11;1.25;;;0.20;;
75798;SDS011;70933;44.692;37.776;2024-01-30T03:02:13;1.55;;;0.73;;
75798;SDS011;70933;44.692;37.776;2024-01-30T03:03:15;1.00;;;0.25;;
75798;SDS011;70933;44.692;37.776;2024-01-30T03:04:16;0.93;;;0.60;;
75798;SDS011;70933;44.692;37.776;2024-01-30T03:05:18;1.00;;;0.30;;
75798;SDS011;70933;44.692;37.776;2024-01-30T03:06:19;1.30;;;0.45;;
75798;SDS011;70933;44.692;37.776;2024-01-30T03:07:22;1.50;;;0.60;;
75798;SDS011;70933;44.692;37.776;2024-01-30T03:08:24;1.95;;;0.60;;
75798;SDS011;70933;44.692;37.776;2024-01-30T03:09:26;1.98;;;0.95;;
75798;SDS011;70933;44.692;37.776;2024-01-30T03:10:28;0.73;;;0.30;;
75798;SDS011;70933;44.692;37.776;2024-01-30T03:11:29;1.20;;;0.68;;
75798;SDS011;70933;44.692;37.776;2024-01-30T03:12:32;1.05;;;0.28;;
75798;SDS011;70933;44.692;37.776;2024-01-30T03:13:34;1.60;;;0.47;;
75798;SDS011;70933;44.692;37.776;2024-01-30T03:14:36;0.88;;;0.20;;
75798;SDS011;70933;44.692;37.776;2024-01-30T03:15:37;0.90;;;0.17;;
75798;SDS011;70933;44.692;37.776;2024-01-30T03:16:39;1.90;;;0.40;;
75798;SDS011;70933;44.692;37.776;2024-01-30T03:17:40;1.20;;;0.43;;
75798;SDS011;70933;44.692;37.776;2024-01-30T03:18:42;1.00;;;0.30;;
75798;SDS011;70933;44.692;37.776;2024-01-30T03:19:44;1.77;;;0.20;;
75798;SDS011;70933;44.692;37.776;2024-01-30T03:20:45;0.82;;;0.45;;
75798;SDS011;70933;44.692;37.776;2024-01-30T03:21:47;1.10;;;0.15;;
75798;SDS011;70933;44.692;37.776;2024-01-30T03:22:48;0.80;;;0.17;;
75798;SDS011;70933;44.692;37.776;2024-01-30T03:23:50;1.30;;;0.40;;
75798;SDS011;70933;44.692;37.776;2024-01-30T03:24:51;2.08;;;0.50;;
75798;SDS011;70933;44.692;37.776;2024-01-30T03:25:53;0.85;;;0.20;;
75798;SDS011;70933;44.692;37.776;2024-01-30T03:26:55;0.90;;;0.40;;
75798;SDS011;70933;44.692;37.776;2024-01-30T03:27:56;1.05;;;0.20;;
75798;SDS011;70933;44.692;37.776;2024-01-30T03:28:58;1.30;;;0.30;;
75798;SDS011;70933;44.692;37.776;2024-01-30T03:30:00;1.05;;;0.30;;
75798;SDS011;70933;44.692;37.776;2024-01-30T03:31:01;0.85;;;0.13;;
75798;SDS011;70933;44.692;37.776;2024-01-30T03:32:03;0.80;;;0.10;;
75798;SDS011;70933;44.692;37.776;2024-01-30T03:33:05;1.50;;;0.40;;
75798;SDS011;70933;44.692;37.776;2024-01-30T03:34:06;1.10;;;0.25;;
75798;SDS011;70933;44.692;37.776;2024-01-30T03:35:08;1.00;;;0.20;;
75798;SDS011;70933;44.692;37.776;2024-01-30T03:36:10;1.33;;;0.30;;
75798;SDS011;70933;44.692;37.776;2024-01-30T03:37:12;1.40;;;0.13;;
75798;SDS011;70933;44.692;37.776;2024-01-30T03:38:13;1.05;;;0.25;;
75798;SDS011;70933;44.692;37.776;2024-01-30T03:39:15;0.80;;;0.13;;
75798;SDS011;70933;44.692;37.776;2024-01-30T03:40:16;0.98;;;0.13;;
75798;SDS011;70933;44.692;37.776;2024-01-30T03:41:18;1.63;;;0.50;;
75798;SDS011;70933;44.692;37.776;2024-01-30T03:42:20;1.30;;;0.30;;
75798;SDS011;70933;44.692;37.776;2024-01-30T03:43:21;1.13;;;0.38;;
75798;SDS011;70933;44.692;37.776;2024-01-30T03:44:23;1.80;;;0.10;;
75798;SDS011;70933;44.692;37.776;2024-01-30T03:45:24;1.80;;;0.47;;
75798;SDS011;70933;44.692;37.776;2024-01-30T03:46:26;1.33;;;0.30;;
75798;SDS011;70933;44.692;37.776;2024-01-30T03:47:28;0.90;;;0.20;;
75798;SDS011;70933;44.692;37.776;2024-01-30T03:48:30;0.98;;;0.32;;
75798;SDS011;70933;44.692;37.776;2024-01-30T03:49:31;0.73;;;0.32;;
75798;SDS011;70933;44.692;37.776;2024-01-30T03:50:33;1.00;;;0.20;;
75798;SDS011;70933;44.692;37.776;2024-01-30T03:51:34;2.15;;;0.95;;
75798;SDS011;70933;44.692;37.776;2024-01-30T03:52:36;1.00;;;0.10;;
75798;SDS011;70933;44.692;37.776;2024-01-30T03:53:38;1.10;;;0.32;;
75798;SDS011;70933;44.692;37.776;2024-01-30T03:54:39;0.75;;;0.10;;
75798;SDS011;70933;44.692;37.776;2024-01-30T03:55:41;0.90;;;0.13;;
75798;SDS011;70933;44.692;37.776;2024-01-30T03:56:43;1.40;;;0.22;;
75798;SDS011;70933;44.692;37.776;2024-01-30T03:57:44;0.85;;;0.20;;
75798;SDS011;70933;44.692;37.776;2024-01-30T03:58:46;1.38;;;0.43;;
75798;SDS011;70933;44.692;37.776;2024-01-30T03:59:48;1.25;;;0.73;;
75798;SDS011;70933;44.692;37.776;2024-01-30T04:00:49;0.88;;;0.30;;
75798;SDS011;70933;44.692;37.776;2024-01-30T04:01:51;1.55;;;0.30;;
75798;SDS011;70933;44.692;37.776;2024-01-30T04:02:53;1.58;;;0.20;;
75798;SDS011;70933;44.692;37.776;2024-01-30T04:03:54;1.38;;;0.25;;
75798;SDS011;70933;44.692;37.776;2024-01-30T04:04:56;1.40;;;0.20;;
75798;SDS011;70933;44.692;37.776;2024-01-30T04:05:58;0.88;;;0.30;;
75798;SDS011;70933;44.692;37.776;2024-01-30T04:06:59;1.20;;;0.60;;
75798;SDS011;70933;44.692;37.776;2024-01-30T04:08:01;0.93;;;0.20;;
75798;SDS011;70933;44.692;37.776;2024-01-30T04:09:03;1.27;;;0.73;;
75798;SDS011;70933;44.692;37.776;2024-01-30T04:10:04;0.90;;;0.30;;
75798;SDS011;70933;44.692;37.776;2024-01-30T04:11:07;1.50;;;0.40;;
75798;SDS011;70933;44.692;37.776;2024-01-30T04:12:08;1.23;;;0.40;;
75798;SDS011;70933;44.692;37.776;2024-01-30T04:13:10;1.40;;;0.30;;
75798;SDS011;70933;44.692;37.776;2024-01-30T04:14:12;0.95;;;0.28;;
75798;SDS011;70933;44.692;37.776;2024-01-30T04:15:14;1.60;;;0.47;;
75798;SDS011;70933;44.692;37.776;2024-01-30T04:16:22;1.20;;;0.47;;
75798;SDS011;70933;44.692;37.776;2024-01-30T04:17:24;0.75;;;0.05;;
75798;SDS011;70933;44.692;37.776;2024-01-30T04:18:25;0.90;;;0.20;;
75798;SDS011;70933;44.692;37.776;2024-01-30T04:19:27;1.00;;;0.13;;
75798;SDS011;70933;44.692;37.776;2024-01-30T04:20:29;0.93;;;0.28;;
75798;SDS011;70933;44.692;37.776;2024-01-30T04:21:31;0.80;;;0.22;;
75798;SDS011;70933;44.692;37.776;2024-01-30T04:22:32;1.15;;;0.20;;
75798;SDS011;70933;44.692;37.776;2024-01-30T04:23:34;1.00;;;0.52;;
75798;SDS011;70933;44.692;37.776;2024-01-30T04:24:35;0.80;;;0.25;;
75798;SDS011;70933;44.692;37.776;2024-01-30T04:25:37;0.90;;;0.15;;
75798;SDS011;70933;44.692;37.776;2024-01-30T04:26:39;0.90;;;0.30;;
75798;SDS011;70933;44.692;37.776;2024-01-30T04:27:41;1.98;;;0.15;;
75798;SDS011;70933;44.692;37.776;2024-01-30T04:28:43;1.75;;;0.47;;
75798;SDS011;70933;44.692;37.776;2024-01-30T04:29:46;1.25;;;0.30;;
75798;SDS011;70933;44.692;37.776;2024-01-30T04:30:47;1.23;;;0.40;;
75798;SDS011;70933;44.692;37.776;2024-01-30T04:31:49;1.80;;;0.40;;
75798;SDS011;70933;44.692;37.776;2024-01-30T04:32:50;0.80;;;0.25;;
75798;SDS011;70933;44.692;37.776;2024-01-30T04:33:52;0.80;;;0.28;;
75798;SDS011;70933;44.692;37.776;2024-01-30T04:34:54;0.88;;;0.20;;
75798;SDS011;70933;44.692;37.776;2024-01-30T04:35:55;1.02;;;0.20;;
75798;SDS011;70933;44.692;37.776;2024-01-30T04:36:57;1.00;;;0.28;;
75798;SDS011;70933;44.692;37.776;2024-01-30T04:37:59;0.80;;;0.10;;
75798;SDS011;70933;44.692;37.776;2024-01-30T04:39:00;1.50;;;0.47;;
75798;SDS011;70933;44.692;37.776;2024-01-30T04:40:02;1.00;;;0.60;;
75798;SDS011;70933;44.692;37.776;2024-01-30T04:41:04;1.38;;;0.25;;
75798;SDS011;70933;44.692;37.776;2024-01-30T04:42:05;0.98;;;0.20;;
75798;SDS011;70933;44.692;37.776;2024-01-30T04:43:07;1.50;;;0.52;;
75798;SDS011;70933;44.692;37.776;2024-01-30T04:44:09;1.48;;;0.52;;
75798;SDS011;70933;44.692;37.776;2024-01-30T04:45:10;1.02;;;0.20;;
75798;SDS011;70933;44.692;37.776;2024-01-30T04:46:13;0.82;;;0.47;;
75798;SDS011;70933;44.692;37.776;2024-01-30T04:47:14;2.08;;;0.43;;
75798;SDS011;70933;44.692;37.776;2024-01-30T04:48:16;1.10;;;0.30;;
75798;SDS011;70933;44.692;37.776;2024-01-30T04:49:18;2.58;;;0.30;;
75798;SDS011;70933;44.692;37.776;2024-01-30T04:50:19;1.15;;;0.47;;
75798;SDS011;70933;44.692;37.776;2024-01-30T04:51:21;1.50;;;0.55;;
75798;SDS011;70933;44.692;37.776;2024-01-30T04:52:22;1.10;;;0.40;;
75798;SDS011;70933;44.692;37.776;2024-01-30T04:53:24;1.95;;;0.60;;
75798;SDS011;70933;44.692;37.776;2024-01-30T04:54:25;1.83;;;0.45;;
75798;SDS011;70933;44.692;37.776;2024-01-30T04:55:28;1.73;;;0.30;;
75798;SDS011;70933;44.692;37.776;2024-01-30T04:56:30;0.95;;;0.20;;
75798;SDS011;70933;44.692;37.776;2024-01-30T04:57:32;2.70;;;0.30;;
75798;SDS011;70933;44.692;37.776;2024-01-30T04:58:35;2.10;;;0.30;;
75798;SDS011;70933;44.692;37.776;2024-01-30T04:59:37;3.35;;;0.68;;
75798;SDS011;70933;44.692;37.776;2024-01-30T05:00:39;1.58;;;0.32;;
75798;SDS011;70933;44.692;37.776;2024-01-30T05:01:40;2.35;;;0.40;;
75798;SDS011;70933;44.692;37.776;2024-01-30T05:02:42;2.47;;;0.52;;
75798;SDS011;70933;44.692;37.776;2024-01-30T05:03:43;1.98;;;0.77;;
75798;SDS011;70933;44.692;37.776;2024-01-30T05:04:45;4.03;;;1.40;;
75798;SDS011;70933;44.692;37.776;2024-01-30T05:05:47;5.97;;;3.28;;
75798;SDS011;70933;44.692;37.776;2024-01-30T05:06:48;4.30;;;3.03;;
75798;SDS011;70933;44.692;37.776;2024-01-30T05:08:02;5.43;;;2.65;;
75798;SDS011;70933;44.692;37.776;2024-01-30T05:09:04;7.20;;;2.70;;
75798;SDS011;70933;44.692;37.776;2024-01-30T05:10:06;5.45;;;2.90;;
75798;SDS011;70933;44.692;37.776;2024-01-30T05:11:09;5.20;;;2.42;;
75798;SDS011;70933;44.692;37.776;2024-01-30T05:12:11;8.73;;;3.67;;
75798;SDS011;70933;44.692;37.776;2024-01-30T05:13:13;5.50;;;2.90;;
75798;SDS011;70933;44.692;37.776;2024-01-30T05:14:15;4.80;;;2.20;;
75798;SDS011;70933;44.692;37.776;2024-01-30T05:15:17;4.07;;;2.15;;
75798;SDS011;70933;44.692;37.776;2024-01-30T05:16:18;4.70;;;2.20;;
75798;SDS011;70933;44.692;37.776;2024-01-30T05:17:20;4.13;;;2.40;;
75798;SDS011;70933;44.692;37.776;2024-01-30T05:18:22;4.60;;;2.40;;
75798;SDS011;70933;44.692;37.776;2024-01-30T05:19:24;3.90;;;2.28;;
75798;SDS011;70933;44.692;37.776;2024-01-30T05:20:25;4.22;;;2.35;;
75798;SDS011;70933;44.692;37.776;2024-01-30T05:21:29;4.32;;;2.10;;
75798;SDS011;70933;44.692;37.776;2024-01-30T05:22:31;4.15;;;1.98;;
75798;SDS011;70933;44.692;37.776;2024-01-30T05:23:33;3.40;;;1.58;;
75798;SDS011;70933;44.692;37.776;2024-01-30T05:24:35;4.10;;;2.33;;
75798;SDS011;70933;44.692;37.776;2024-01-30T05:25:37;4.50;;;1.80;;
75798;SDS011;70933;44.692;37.776;2024-01-30T05:26:39;3.13;;;1.50;;
75798;SDS011;70933;44.692;37.776;2024-01-30T05:27:40;3.10;;;1.63;;
75798;SDS011;70933;44.692;37.776;2024-01-30T05:28:42;3.90;;;1.50;;
75798;SDS011;70933;44.692;37.776;2024-01-30T05:29:45;3.92;;;1.45;;
75798;SDS011;70933;44.692;37.776;2024-01-30T05:30:47;3.10;;;1.70;;
75798;SDS011;70933;44.692;37.776;2024-01-30T05:31:48;3.25;;;1.30;;
75798;SDS011;70933;44.692;37.776;2024-01-30T05:32:50;2.42;;;1.13;;
75798;SDS011;70933;44.692;37.776;2024-01-30T05:33:52;4.65;;;1.38;;
75798;SDS011;70933;44.692;37.776;2024-01-30T05:34:53;5.28;;;1.13;;
75798;SDS011;70933;44.692;37.776;2024-01-30T05:35:55;3.92;;;1.52;;
75798;SDS011;70933;44.692;37.776;2024-01-30T05:36:59;3.08;;;1.00;;
75798;SDS011;70933;44.692;37.776;2024-01-30T05:38:01;2.88;;;1.27;;
75798;SDS011;70933;44.692;37.776;2024-01-30T05:39:03;3.13;;;1.25;;
75798;SDS011;70933;44.692;37.776;2024-01-30T05:40:04;3.40;;;0.98;;
75798;SDS011;70933;44.692;37.776;2024-01-30T05:41:07;4.60;;;1.25;;
75798;SDS011;70933;44.692;37.776;2024-01-30T05:42:09;3.85;;;1.30;;
75798;SDS011;70933;44.692;37.776;2024-01-30T05:43:11;4.10;;;1.20;;
75798;SDS011;70933;44.692;37.776;2024-01-30T05:44:13;3.30;;;0.88;;
75798;SDS011;70933;44.692;37.776;2024-01-30T05:45:15;2.85;;;1.33;;
75798;SDS011;70933;44.692;37.776;2024-01-30T05:46:16;1.95;;;1.08;;
75798;SDS011;70933;44.692;37.776;2024-01-30T05:47:18;3.38;;;1.48;;
75798;SDS011;70933;44.692;37.776;2024-01-30T05:48:20;3.65;;;1.20;;
75798;SDS011;70933;44.692;37.776;2024-01-30T05:49:21;3.88;;;1.30;;
75798;SDS011;70933;44.692;37.776;2024-01-30T05:50:23;3.20;;;1.02;;
75798;SDS011;70933;44.692;37.776;2024-01-30T05:51:26;2.15;;;0.80;;
75798;SDS011;70933;44.692;37.776;2024-01-30T05:52:29;2.30;;;0.82;;
75798;SDS011;70933;44.692;37.776;2024-01-30T05:53:30;3.03;;;1.30;;
75798;SDS011;70933;44.692;37.776;2024-01-30T05:54:32;3.63;;;1.13;;
75798;SDS011;70933;44.692;37.776;2024-01-30T05:55:34;3.22;;;2.03;;
75798;SDS011;70933;44.692;37.776;2024-01-30T05:56:36;2.60;;;0.85;;
75798;SDS011;70933;44.692;37.776;2024-01-30T05:57:37;3.35;;;0.93;;
75798;SDS011;70933;44.692;37.776;2024-01-30T05:58:39;2.53;;;0.68;;
75798;SDS011;70933;44.692;37.776;2024-01-30T05:59:41;1.95;;;0.88;;
75798;SDS011;70933;44.692;37.776;2024-01-30T06:00:42;3.67;;;1.05;;
75798;SDS011;70933;44.692;37.776;2024-01-30T06:01:47;2.95;;;0.68;;
75798;SDS011;70933;44.692;37.776;2024-01-30T06:02:49;2.85;;;1.25;;
75798;SDS011;70933;44.692;37.776;2024-01-30T06:03:51;3.63;;;1.15;;
75798;SDS011;70933;44.692;37.776;2024-01-30T06:04:53;3.17;;;0.95;;
75798;SDS011;70933;44.692;37.776;2024-01-30T06:05:54;2.92;;;0.70;;
75798;SDS011;70933;44.692;37.776;2024-01-30T06:06:56;3.35;;;0.80;;
75798;SDS011;70933;44.692;37.776;2024-01-30T06:07:57;2.35;;;1.10;;